createdAt,value
2023-02-04T00:01:37.412Z,18.35
2023-02-04T00:04:05.567Z,19.55
2023-02-04T00:06:33.358Z,13.95
2023-02-04T00:09:01.148Z,14.35
2023-02-04T00:11:30.254Z,18.30
2023-02-04T00:13:58.001Z,16.80
2023-02-04T00:16:25.811Z,16.80
2023-02-04T00:18:53.679Z,14.55
2023-02-04T00:21:21.451Z,14.00
2023-02-04T00:23:51.134Z,19.35
2023-02-04T00:26:18.911Z,13.48
2023-02-04T00:28:47.979Z,19.10
2023-02-04T00:31:15.799Z,13.98
2023-02-04T00:33:43.940Z,13.23
2023-02-04T00:36:11.682Z,17.50
2023-02-04T00:38:39.414Z,15.85
2023-02-04T00:41:07.630Z,9.85
2023-02-04T00:43:35.355Z,16.40
2023-02-04T00:46:04.519Z,20.15
2023-02-04T00:48:32.298Z,15.88
2023-02-04T00:50:59.984Z,11.68
2023-02-04T00:53:27.695Z,15.30
2023-02-04T00:55:55.460Z,15.25
2023-02-04T00:58:23.240Z,15.73
2023-02-04T01:00:51.021Z,12.50
2023-02-04T01:03:20.349Z,14.63
2023-02-04T01:05:48.070Z,20.55
2023-02-04T01:08:15.858Z,18.52
2023-02-04T01:10:43.589Z,15.65
2023-02-04T01:13:11.634Z,16.40
2023-02-04T01:15:39.372Z,13.13
2023-02-04T01:18:07.115Z,10.05
2023-02-04T01:20:36.204Z,14.05
2023-02-04T01:23:03.943Z,15.00
2023-02-04T01:25:31.661Z,18.55
2023-02-04T01:27:59.462Z,14.65
2023-02-04T01:30:27.375Z,14.50
2023-02-04T01:32:55.096Z,11.07
2023-02-04T01:35:22.966Z,13.75
2023-02-04T01:37:52.057Z,15.85
2023-02-04T01:40:20.327Z,7.28
2023-02-04T01:42:48.313Z,12.80
2023-02-04T01:45:16.086Z,12.70
2023-02-04T01:47:45.189Z,15.90
2023-02-04T01:50:15.709Z,13.73
2023-02-04T01:52:45.388Z,15.57
2023-02-04T01:55:18.109Z,13.68
2023-02-04T01:57:46.206Z,14.95
2023-02-04T02:00:17.843Z,16.95
2023-02-04T02:02:48.140Z,19.33
2023-02-04T02:05:19.041Z,15.73
2023-02-04T02:07:46.889Z,11.23
2023-02-04T02:10:17.071Z,14.43
2023-02-04T02:12:45.356Z,17.20
2023-02-04T02:15:14.578Z,16.65
2023-02-04T02:17:42.821Z,20.52
2023-02-04T02:20:13.100Z,12.30
2023-02-04T02:22:45.641Z,13.75
2023-02-04T02:25:16.187Z,11.98
2023-02-04T02:27:44.649Z,19.23
2023-02-04T02:30:16.691Z,11.07
2023-02-04T02:32:45.617Z,11.68
2023-02-04T02:35:13.526Z,14.70
2023-02-04T02:37:41.327Z,18.25
2023-02-04T02:40:10.502Z,15.52
2023-02-04T02:42:39.876Z,19.50
2023-02-04T02:45:18.270Z,14.15
2023-02-04T02:47:46.106Z,13.65
2023-02-04T02:50:17.900Z,14.73
2023-02-04T02:52:45.787Z,14.18
2023-02-04T02:55:17.220Z,10.65
2023-02-04T02:57:48.315Z,12.63
2023-02-04T03:00:18.667Z,9.15
2023-02-04T03:02:50.814Z,18.50
2023-02-04T03:05:18.609Z,11.02
2023-02-04T03:07:46.407Z,11.10
2023-02-04T03:10:14.222Z,13.27
2023-02-04T03:12:42.012Z,16.02
2023-02-04T03:15:11.660Z,13.88
2023-02-04T03:17:39.490Z,14.48
2023-02-04T03:20:08.385Z,14.02
2023-02-04T03:22:36.453Z,12.07
2023-02-04T03:25:04.520Z,13.80
2023-02-04T03:27:32.492Z,16.42
2023-02-04T03:30:00.259Z,13.98
2023-02-04T03:32:29.334Z,10.52
2023-02-04T03:34:57.049Z,14.35
2023-02-04T03:37:24.764Z,10.02
2023-02-04T03:39:52.542Z,14.75
2023-02-04T03:42:20.291Z,9.82
2023-02-04T03:44:48.017Z,12.32
2023-02-04T03:47:15.809Z,12.00
2023-02-04T03:49:44.905Z,9.80
2023-02-04T03:52:12.668Z,10.02
2023-02-04T03:54:40.397Z,10.73
2023-02-04T03:57:08.109Z,13.30
2023-02-04T03:59:35.860Z,14.13
2023-02-04T04:02:03.632Z,12.20
2023-02-04T04:04:31.446Z,13.73
2023-02-04T04:07:00.585Z,10.18
2023-02-04T04:09:28.494Z,17.55
2023-02-04T04:11:56.482Z,11.15
2023-02-04T04:14:24.215Z,12.15
2023-02-04T04:16:51.982Z,15.43
2023-02-04T04:19:19.758Z,15.90
2023-02-04T04:21:47.538Z,11.82
2023-02-04T04:24:16.630Z,12.02
2023-02-04T04:26:44.370Z,13.75
2023-02-04T04:29:12.156Z,14.27
2023-02-04T04:31:39.976Z,7.05
2023-02-04T04:34:07.799Z,11.25
2023-02-04T04:36:35.544Z,14.10
2023-02-04T04:39:03.268Z,16.98
2023-02-04T04:41:32.327Z,12.07
2023-02-04T04:44:00.029Z,12.82
2023-02-04T04:46:27.790Z,15.05
2023-02-04T04:48:55.566Z,9.05
2023-02-04T04:51:23.362Z,14.43
2023-02-04T04:53:51.145Z,13.02
2023-02-04T04:56:19.201Z,11.98
2023-02-04T04:58:48.341Z,9.18
2023-02-04T05:01:16.146Z,9.88
2023-02-04T05:03:43.928Z,10.00
2023-02-04T05:06:13.067Z,12.02
2023-02-04T05:08:40.831Z,10.35
2023-02-04T05:11:08.605Z,10.35
2023-02-04T05:13:36.332Z,9.73
2023-02-04T05:16:05.995Z,12.35
2023-02-04T05:18:33.754Z,9.95
2023-02-04T05:21:01.768Z,9.85
2023-02-04T05:23:29.468Z,12.23
2023-02-04T05:25:57.458Z,12.30
2023-02-04T05:28:25.207Z,15.43
2023-02-04T05:30:52.943Z,9.43
2023-02-04T05:33:22.040Z,11.52
2023-02-04T05:35:50.036Z,11.90
2023-02-04T05:38:17.788Z,15.88
2023-02-04T05:40:45.537Z,11.90
2023-02-04T05:43:13.257Z,13.27
2023-02-04T05:45:41.010Z,11.52
2023-02-04T05:48:08.778Z,12.93
2023-02-04T05:50:37.937Z,13.80
2023-02-04T05:53:05.712Z,11.98
2023-02-04T05:55:33.463Z,16.33
2023-02-04T05:58:01.263Z,17.00
2023-02-04T06:00:29.062Z,14.25
2023-02-04T06:02:56.899Z,13.15
2023-02-04T06:05:24.657Z,11.80
2023-02-04T06:07:53.825Z,12.23
2023-02-04T06:10:22.081Z,13.82
2023-02-04T06:12:50.092Z,17.02
2023-02-04T06:15:18.114Z,16.13
2023-02-04T06:17:45.798Z,15.90
2023-02-04T06:20:15.864Z,15.27
2023-02-04T06:22:43.588Z,14.13
2023-02-04T06:25:12.687Z,13.23
2023-02-04T06:27:40.467Z,12.73
2023-02-04T06:30:09.389Z,11.77
2023-02-04T06:32:37.256Z,12.77
2023-02-04T06:35:05.286Z,13.55
2023-02-04T06:37:33.043Z,16.80
2023-02-04T06:40:00.853Z,13.30
2023-02-04T06:42:29.895Z,14.30
2023-02-04T06:44:57.678Z,14.38
2023-02-04T06:47:25.409Z,14.30
2023-02-04T06:49:53.155Z,13.82
2023-02-04T06:52:20.892Z,17.10
2023-02-04T06:54:48.688Z,16.20
2023-02-04T06:57:16.399Z,17.42
2023-02-04T06:59:47.034Z,14.25
2023-02-04T07:02:15.516Z,19.13
2023-02-04T07:04:43.807Z,15.23
2023-02-04T07:07:11.614Z,20.20
2023-02-04T07:09:40.618Z,18.38
2023-02-04T07:12:08.699Z,19.75
2023-02-04T07:14:36.487Z,21.35
2023-02-04T07:17:05.638Z,17.40
2023-02-04T07:19:33.824Z,21.38
2023-02-04T07:22:01.596Z,18.95
2023-02-04T07:24:29.351Z,15.88
2023-02-04T07:26:57.106Z,16.92
2023-02-04T07:29:26.046Z,17.55
2023-02-04T07:31:54.120Z,17.25
2023-02-04T07:34:23.393Z,14.70
2023-02-04T07:36:51.499Z,18.58
2023-02-04T07:39:19.316Z,17.90
2023-02-04T07:41:47.144Z,19.50
2023-02-04T07:44:14.970Z,16.10
2023-02-04T07:46:42.872Z,21.55
2023-02-04T07:49:10.638Z,15.88
2023-02-04T07:51:39.769Z,14.82
2023-02-04T07:54:07.448Z,18.65
2023-02-04T07:56:35.240Z,17.52
2023-02-04T07:59:03.076Z,22.10
2023-02-04T08:01:30.857Z,16.60
2023-02-04T08:03:58.647Z,16.30
2023-02-04T08:06:26.492Z,16.98
2023-02-04T08:08:55.578Z,18.00
2023-02-04T08:11:23.259Z,20.52
2023-02-04T08:13:50.955Z,20.08
2023-02-04T08:16:18.739Z,19.08
2023-02-04T08:18:46.459Z,18.45
2023-02-04T08:21:14.193Z,18.30
2023-02-04T08:23:42.317Z,14.32
2023-02-04T08:26:12.860Z,17.00
2023-02-04T08:28:40.605Z,19.75
2023-02-04T08:31:11.860Z,18.17
2023-02-04T08:33:40.053Z,18.85
2023-02-04T08:36:08.677Z,14.82
2023-02-04T08:38:36.587Z,21.55
2023-02-04T08:41:04.564Z,22.10
2023-02-04T08:43:33.630Z,22.58
2023-02-04T08:46:01.396Z,22.90
2023-02-04T08:48:29.300Z,17.67
2023-02-04T08:50:57.123Z,18.02
2023-02-04T08:53:24.913Z,22.88
2023-02-04T08:55:52.671Z,29.30
2023-02-04T08:58:20.391Z,21.00
2023-02-04T09:00:49.666Z,22.88
2023-02-04T09:03:17.397Z,23.77
2023-02-04T09:05:45.066Z,18.20
2023-02-04T09:08:12.833Z,26.40
2023-02-04T09:10:40.800Z,28.25
2023-02-04T09:13:11.690Z,26.05
2023-02-04T09:15:39.492Z,21.92
2023-02-04T09:18:16.373Z,23.75
2023-02-04T09:23:12.936Z,20.40
2023-02-04T09:25:41.213Z,26.10
2023-02-04T09:28:11.553Z,23.45
2023-02-04T09:30:39.929Z,27.73
2023-02-04T09:33:09.840Z,27.70
2023-02-04T09:35:37.658Z,25.30
2023-02-04T09:38:05.482Z,25.60
2023-02-04T09:40:36.414Z,27.05
2023-02-04T09:43:06.667Z,22.63
2023-02-04T09:45:36.991Z,28.45
2023-02-04T09:48:08.545Z,30.55
2023-02-04T09:50:38.738Z,25.58
2023-02-04T09:53:08.429Z,29.67
2023-02-04T09:55:39.073Z,23.67
2023-02-04T09:58:13.346Z,28.58
2023-02-04T10:00:41.111Z,27.77
2023-02-04T10:03:15.901Z,30.83
2023-02-04T10:05:45.671Z,29.20
2023-02-04T10:08:16.334Z,32.67
2023-02-04T10:10:45.086Z,27.88
2023-02-04T10:13:19.431Z,28.33
2023-02-04T10:15:49.022Z,38.13
2023-02-04T10:18:23.449Z,31.00
2023-02-04T10:20:54.030Z,44.38
2023-02-04T10:23:22.119Z,41.80
2023-02-04T10:25:49.869Z,30.88
2023-02-04T10:28:18.412Z,28.17
2023-02-04T10:30:47.218Z,38.50
2023-02-04T10:33:16.818Z,31.38
2023-02-04T10:35:49.170Z,31.90
2023-02-04T10:38:18.290Z,27.15
2023-02-04T10:40:47.224Z,32.38
2023-02-04T10:43:23.780Z,29.33
2023-02-04T10:45:59.069Z,26.63
2023-02-04T10:48:27.945Z,31.17
2023-02-04T10:50:57.548Z,33.95
2023-02-04T10:53:45.223Z,32.03
2023-02-04T10:56:17.731Z,27.13
2023-02-04T10:58:45.750Z,27.65
2023-02-04T11:01:16.013Z,33.15
2023-02-04T11:03:47.095Z,34.53
2023-02-04T11:06:21.379Z,31.88
2023-02-04T11:08:53.539Z,31.67
2023-02-04T11:11:24.388Z,29.92
2023-02-04T11:14:04.251Z,37.55
2023-02-04T11:16:35.517Z,31.67
2023-02-04T11:19:05.594Z,27.20
2023-02-04T11:21:44.603Z,27.60
2023-02-04T11:24:26.404Z,31.58
2023-02-04T11:27:07.515Z,27.15
2023-02-04T11:29:38.480Z,31.83
2023-02-04T11:32:11.390Z,27.20
2023-02-04T11:34:48.658Z,24.38
2023-02-04T11:37:35.551Z,26.23
2023-02-04T11:40:21.427Z,29.08
2023-02-04T11:42:49.570Z,28.13
2023-02-04T11:45:21.127Z,30.77
2023-02-04T11:47:49.485Z,26.63
2023-02-04T11:50:22.704Z,20.73
2023-02-04T11:52:50.498Z,28.30
2023-02-04T11:55:20.190Z,26.77
2023-02-04T11:57:52.999Z,29.90
2023-02-04T12:00:22.929Z,32.13
2023-02-04T12:02:56.170Z,28.08
2023-02-04T12:05:37.533Z,27.23
2023-02-04T12:08:13.603Z,30.55
2023-02-04T12:10:50.158Z,33.78
2023-02-04T12:13:20.122Z,28.00
2023-02-04T12:15:56.676Z,22.55
2023-02-04T12:18:24.413Z,27.50
2023-02-04T12:20:52.112Z,24.02
2023-02-04T12:23:19.963Z,25.33
2023-02-04T12:25:49.247Z,33.22
2023-02-04T12:28:17.278Z,35.40
2023-02-04T12:30:45.210Z,32.00
2023-02-04T12:33:14.920Z,26.30
2023-02-04T12:35:42.956Z,28.00
2023-02-04T12:38:11.046Z,28.23
2023-02-04T12:40:38.972Z,26.55
2023-02-04T12:43:08.152Z,32.13
2023-02-04T12:45:35.929Z,31.38
2023-02-04T12:48:03.682Z,20.20
2023-02-04T12:50:31.666Z,25.02
2023-02-04T12:53:00.836Z,29.83
2023-02-04T12:55:30.413Z,31.85
2023-02-04T12:57:58.402Z,24.17
2023-02-04T13:00:27.794Z,21.98
2023-02-04T13:02:56.045Z,31.83
2023-02-04T13:05:23.761Z,28.48
2023-02-04T13:07:51.612Z,18.70
2023-02-04T13:10:20.157Z,23.23
2023-02-04T13:12:47.958Z,25.85
2023-02-04T13:15:15.728Z,26.05
2023-02-04T13:17:44.810Z,25.80
2023-02-04T13:20:13.739Z,19.33
2023-02-04T13:22:44.277Z,20.67
2023-02-04T13:25:12.600Z,18.83
2023-02-04T13:27:40.924Z,24.73
2023-02-04T13:30:10.307Z,15.70
2023-02-04T13:32:38.092Z,23.17
2023-02-04T13:35:08.019Z,23.20
2023-02-04T13:37:36.014Z,29.67
2023-02-04T13:40:03.758Z,23.70
2023-02-04T13:42:31.483Z,21.25
2023-02-04T13:44:59.236Z,26.25
2023-02-04T13:47:27.561Z,21.88
2023-02-04T13:49:55.306Z,20.50
2023-02-04T13:52:24.393Z,21.55
2023-02-04T13:54:52.127Z,26.55
2023-02-04T13:57:21.181Z,27.58
2023-02-04T13:59:48.894Z,25.38
2023-02-04T14:02:16.949Z,25.65
2023-02-04T14:04:44.708Z,22.83
2023-02-04T14:07:13.743Z,26.98
2023-02-04T14:09:42.901Z,19.25
2023-02-04T14:12:10.806Z,25.85
2023-02-04T14:14:38.509Z,25.83
2023-02-04T14:17:06.674Z,24.15
2023-02-04T14:19:34.485Z,21.45
2023-02-04T14:22:02.804Z,29.70
2023-02-04T14:24:30.611Z,24.98
2023-02-04T14:27:01.230Z,21.90
2023-02-04T14:29:28.970Z,23.20
2023-02-04T14:31:56.762Z,25.85
2023-02-04T14:34:24.566Z,23.17
2023-02-04T14:36:52.274Z,21.08
2023-02-04T14:39:20.084Z,20.42
2023-02-04T14:41:47.771Z,23.05
2023-02-04T14:44:20.676Z,21.55
2023-02-04T14:46:49.749Z,25.10
2023-02-04T14:49:17.730Z,21.02
2023-02-04T14:51:45.638Z,22.30
2023-02-04T14:54:13.661Z,23.45
2023-02-04T14:56:41.416Z,18.15
2023-02-04T14:59:09.143Z,26.25
2023-02-04T15:01:38.235Z,27.02
2023-02-04T15:04:06.004Z,19.55
2023-02-04T15:06:33.776Z,20.65
2023-02-04T15:09:01.509Z,22.67
2023-02-04T15:11:29.235Z,16.83
2023-02-04T15:13:56.948Z,17.02
2023-02-04T15:16:24.695Z,27.77
2023-02-04T15:18:53.994Z,20.85
2023-02-04T15:21:21.935Z,15.57
2023-02-04T15:23:49.609Z,19.23
2023-02-04T15:26:17.358Z,21.80
2023-02-04T15:28:45.122Z,23.45
2023-02-04T15:31:13.260Z,19.40
2023-02-04T15:33:41.145Z,21.38
2023-02-04T15:36:10.666Z,25.58
2023-02-04T15:38:38.458Z,26.55
2023-02-04T15:41:06.416Z,21.55
2023-02-04T15:43:35.854Z,25.05
2023-02-04T15:46:03.668Z,21.08
2023-02-04T15:48:31.424Z,29.02
2023-02-04T15:50:59.573Z,22.80
2023-02-04T15:53:28.763Z,21.00
2023-02-04T15:55:56.561Z,29.30
2023-02-04T15:58:24.304Z,21.20
2023-02-04T16:00:52.098Z,23.83
2023-02-04T16:03:19.855Z,22.63
2023-02-04T16:05:47.624Z,27.65
2023-02-04T16:08:21.936Z,30.30
2023-02-04T16:10:51.089Z,25.13
2023-02-04T16:13:18.879Z,19.38
2023-02-04T16:15:46.731Z,24.42
2023-02-04T16:18:14.506Z,26.42
2023-02-04T16:20:42.257Z,19.52
2023-02-04T16:23:10.063Z,19.38
2023-02-04T16:25:37.833Z,21.00
2023-02-04T16:28:07.036Z,29.42
2023-02-04T16:30:34.809Z,24.65
2023-02-04T16:33:02.537Z,26.25
2023-02-04T16:35:30.542Z,25.38
2023-02-04T16:37:58.343Z,22.38
2023-02-04T16:40:26.060Z,27.08
2023-02-04T16:42:54.247Z,28.27
2023-02-04T16:45:24.302Z,20.92
2023-02-04T16:47:52.089Z,27.50
2023-02-04T16:50:22.058Z,24.98
2023-02-04T16:52:49.803Z,23.75
2023-02-04T16:55:17.803Z,24.83
2023-02-04T16:57:45.616Z,21.70
2023-02-04T17:00:14.697Z,21.10
2023-02-04T17:02:43.915Z,26.42
2023-02-04T17:05:11.777Z,24.77
2023-02-04T17:07:39.672Z,25.83
2023-02-04T17:10:08.005Z,22.45
2023-02-04T17:12:35.816Z,26.58
2023-02-04T17:15:03.596Z,19.92
2023-02-04T17:17:31.422Z,20.73
2023-02-04T17:20:01.085Z,22.52
2023-02-04T17:22:28.830Z,20.08
2023-02-04T17:24:56.540Z,25.48
2023-02-04T17:27:24.263Z,25.73
2023-02-04T17:29:52.011Z,23.27
2023-02-04T17:32:19.742Z,23.55
2023-02-04T17:34:47.473Z,21.63
2023-02-04T17:37:16.573Z,24.10
2023-02-04T17:39:44.491Z,20.02
2023-02-04T17:42:12.200Z,22.52
2023-02-04T17:44:40.037Z,21.70
2023-02-04T17:47:08.408Z,27.27
2023-02-04T17:49:36.516Z,25.23
2023-02-04T17:52:04.448Z,23.00
2023-02-04T17:54:34.179Z,34.38
2023-02-04T17:57:12.625Z,27.95
2023-02-04T17:59:41.074Z,28.55
2023-02-04T18:02:21.969Z,28.95
2023-02-04T18:04:49.926Z,23.73
2023-02-04T18:07:17.696Z,27.75
2023-02-04T18:09:46.826Z,30.77
2023-02-04T18:12:16.293Z,23.77
2023-02-04T18:14:44.780Z,31.92
2023-02-04T18:17:14.559Z,27.67
2023-02-04T18:19:45.127Z,22.38
2023-02-04T18:22:14.893Z,23.02
2023-02-04T18:24:45.056Z,24.98
2023-02-04T18:27:21.128Z,26.17
2023-02-04T18:29:51.891Z,26.70
2023-02-04T18:32:22.273Z,25.33
2023-02-04T18:34:52.197Z,25.17
2023-02-04T18:37:30.346Z,30.70
2023-02-04T18:40:24.616Z,25.27
2023-02-04T18:43:02.576Z,28.30
2023-02-04T18:45:32.477Z,24.25
2023-02-04T18:48:02.195Z,22.73
2023-02-04T18:50:32.643Z,23.85
2023-02-04T18:53:02.334Z,22.92
2023-02-04T18:55:34.834Z,30.98
2023-02-04T18:58:28.264Z,22.75
2023-02-04T19:01:00.519Z,21.83
2023-02-04T19:03:30.427Z,22.02
2023-02-04T19:06:00.548Z,23.05
2023-02-04T19:08:30.297Z,18.33
2023-02-04T19:11:00.904Z,29.15
2023-02-04T19:13:40.953Z,20.92
2023-02-04T19:16:21.485Z,22.38
2023-02-04T19:18:50.079Z,20.25
2023-02-04T19:21:27.296Z,16.75
2023-02-04T19:23:59.790Z,20.17
2023-02-04T19:26:35.044Z,24.70
2023-02-04T19:29:37.573Z,21.45
2023-02-04T19:32:24.926Z,17.65
2023-02-04T19:37:26.591Z,19.40
2023-02-04T19:39:55.883Z,19.50
2023-02-04T19:42:29.827Z,19.88
2023-02-04T19:45:01.768Z,16.95
2023-02-04T19:47:35.280Z,17.55
2023-02-04T19:50:21.590Z,19.60
2023-02-04T19:52:52.225Z,22.98
2023-02-04T19:55:34.832Z,16.05
2023-02-04T19:58:14.788Z,17.10
2023-02-04T20:00:53.159Z,18.77
2023-02-04T20:03:28.663Z,19.17
2023-02-04T20:06:01.897Z,17.33
2023-02-04T20:08:46.273Z,14.55
2023-02-04T20:11:50.018Z,20.08
2023-02-04T20:14:42.603Z,18.13
2023-02-04T20:17:22.237Z,15.82
2023-02-04T20:19:50.911Z,18.50
2023-02-04T20:22:43.990Z,13.95
2023-02-04T20:25:43.655Z,18.77
2023-02-04T20:28:20.265Z,15.13
2023-02-04T20:30:50.670Z,20.95
2023-02-04T20:33:29.295Z,17.02
2023-02-04T20:36:42.526Z,19.55
2023-02-04T20:39:43.645Z,20.20
2023-02-04T20:42:35.241Z,21.27
2023-02-04T20:45:25.434Z,22.15
2023-02-04T20:47:57.421Z,23.17
2023-02-04T20:50:38.202Z,22.85
2023-02-04T20:53:09.708Z,21.05
2023-02-04T20:55:37.550Z,22.90
2023-02-04T20:58:16.636Z,22.60
2023-02-04T21:00:47.889Z,23.73
2023-02-04T21:03:25.358Z,21.67
2023-02-04T21:05:55.706Z,25.73
2023-02-04T21:08:33.352Z,18.15
2023-02-04T21:11:01.866Z,22.30
2023-02-04T21:13:29.644Z,20.35
2023-02-04T21:15:57.681Z,26.23
2023-02-04T21:18:26.024Z,19.55
2023-02-04T21:20:55.135Z,21.52
2023-02-04T21:23:22.969Z,25.48
2023-02-04T21:25:50.706Z,24.00
2023-02-04T21:28:18.629Z,24.80
2023-02-04T21:30:46.455Z,23.45
2023-02-04T21:33:16.694Z,23.58
2023-02-04T21:35:44.840Z,24.33
2023-02-04T21:38:13.976Z,22.63
2023-02-04T21:40:42.115Z,22.33
2023-02-04T21:43:11.158Z,21.10
2023-02-04T21:45:39.856Z,22.50
2023-02-04T21:48:08.822Z,22.17
2023-02-04T21:50:38.404Z,24.08
2023-02-04T21:53:06.866Z,20.67
2023-02-04T21:55:36.666Z,21.90
2023-02-04T21:58:04.895Z,18.63
2023-02-04T22:00:33.098Z,23.98
2023-02-04T22:03:01.015Z,20.70
2023-02-04T22:05:28.807Z,19.25
2023-02-04T22:07:58.393Z,20.50
2023-02-04T22:10:27.431Z,19.75
2023-02-04T22:12:56.597Z,22.50
2023-02-04T22:15:24.954Z,27.30
2023-02-04T22:17:55.261Z,21.42
2023-02-04T22:20:25.231Z,20.20
2023-02-04T22:22:53.354Z,27.35
2023-02-04T22:25:22.440Z,22.33
2023-02-04T22:27:50.651Z,25.90
2023-02-04T22:30:20.753Z,22.55
2023-02-04T22:32:48.545Z,20.23
2023-02-04T22:35:16.680Z,21.77
2023-02-04T22:37:44.701Z,20.67
2023-02-04T22:40:13.574Z,25.27
2023-02-04T22:42:41.800Z,23.33
2023-02-04T22:45:11.302Z,24.88
2023-02-04T22:47:40.483Z,25.00
2023-02-04T22:50:08.945Z,25.42
2023-02-04T22:52:36.747Z,26.50
2023-02-04T22:55:04.916Z,23.42
2023-02-04T22:57:32.684Z,28.85
2023-02-04T23:00:00.445Z,26.55
2023-02-04T23:02:28.212Z,31.80
2023-02-04T23:04:57.313Z,24.50
2023-02-04T23:07:25.027Z,32.00
2023-02-04T23:09:52.810Z,26.23
2023-02-04T23:12:20.508Z,27.85
2023-02-04T23:14:49.606Z,28.23
2023-02-04T23:17:18.865Z,31.35
2023-02-04T23:19:46.744Z,22.92
2023-02-04T23:22:16.973Z,30.38
2023-02-04T23:24:45.089Z,23.92
2023-02-04T23:27:13.216Z,31.40
2023-02-04T23:29:41.407Z,25.55
2023-02-04T23:32:09.765Z,25.73
2023-02-04T23:34:37.524Z,30.90
2023-02-04T23:37:05.290Z,22.60
2023-02-04T23:39:34.403Z,26.48
2023-02-04T23:42:02.185Z,27.45
2023-02-04T23:44:29.926Z,26.45
2023-02-04T23:46:57.706Z,25.05
2023-02-04T23:49:25.409Z,26.85
2023-02-04T23:51:53.149Z,27.00
2023-02-04T23:54:20.943Z,28.55
2023-02-04T23:56:50.060Z,27.95
2023-02-04T23:59:17.817Z,24.73
